Time;durP1;ratioP1;P1;durP2;ratioP2;P2;SDS_P1;SDS_P2;PMS_P1;PMS_P2;Temp;Humidity;BMP_temperature;BMP_pressure;BME280_temperature;BME280_humidity;BME280_pressure;Samples;Min_cycle;Max_cycle;Signal;HPM_P1;HPM_P2
2022/01/17 00:00:07;;;;;;;63.77;27.83;;;6.80;99.90;;;;;;5072838;28;20199;-61
2022/01/17 00:02:33;;;;;;;60.07;26.33;;;6.70;99.90;;;;;;5074237;28;20188;-65
2022/01/17 00:04:59;;;;;;;64.17;27.10;;;6.80;99.90;;;;;;5079645;28;20189;-60
2022/01/17 00:07:29;;;;;;;60.30;26.27;;;6.80;99.90;;;;;;5073844;28;20215;-61
2022/01/17 00:09:55;;;;;;;63.33;29.07;;;6.80;99.90;;;;;;5073784;28;20249;-60
2022/01/17 00:12:20;;;;;;;70.07;29.83;;;6.80;99.90;;;;;;5067415;28;20637;-60
2022/01/17 00:14:47;;;;;;;67.63;29.10;;;6.60;99.90;;;;;;5092682;28;20261;-61
2022/01/17 00:19:43;;;;;;;74.40;28.60;;;6.90;99.90;;;;;;5056662;28;20591;-61
2022/01/17 00:22:14;;;;;;;67.97;28.53;;;6.80;99.90;;;;;;5073490;28;20308;-61
2022/01/17 00:24:40;;;;;;;62.93;28.17;;;6.80;99.90;;;;;;5083959;28;20260;-61
2022/01/17 00:27:06;;;;;;;72.17;28.07;;;6.70;99.90;;;;;;5067871;28;20185;-61
2022/01/17 00:29:33;;;;;;;68.83;28.60;;;6.70;99.90;;;;;;5087892;28;20269;-61
2022/01/17 00:31:59;;;;;;;71.07;28.53;;;7.00;99.90;;;;;;5092835;28;20326;-60
2022/01/17 00:34:26;;;;;;;57.93;26.70;;;6.70;99.90;;;;;;5091955;28;20200;-61
2022/01/17 00:36:52;;;;;;;86.27;33.63;;;6.70;99.90;;;;;;5092818;28;20245;-61
2022/01/17 00:39:18;;;;;;;67.47;28.83;;;6.70;99.90;;;;;;5079916;28;20276;-61
2022/01/17 00:41:44;;;;;;;67.60;28.77;;;6.70;99.90;;;;;;5086181;28;20613;-61
2022/01/17 00:44:10;;;;;;;72.93;28.00;;;6.70;99.90;;;;;;5040435;28;20223;-61
2022/01/17 00:46:36;;;;;;;73.93;28.37;;;6.80;99.90;;;;;;5057939;28;20641;-64
2022/01/17 00:49:02;;;;;;;71.27;26.47;;;6.90;99.90;;;;;;5092315;28;20573;-61
2022/01/17 00:51:28;;;;;;;61.20;27.70;;;6.90;99.90;;;;;;5055929;28;20639;-61
2022/01/17 00:53:53;;;;;;;66.33;29.53;;;6.90;99.90;;;;;;5022050;28;20212;-61
2022/01/17 00:56:21;;;;;;;80.20;31.70;;;6.80;99.90;;;;;;5072718;28;20653;-61
2022/01/17 00:58:46;;;;;;;64.37;27.47;;;6.70;99.90;;;;;;5081944;28;20289;-61
2022/01/17 01:01:12;;;;;;;74.83;27.53;;;6.80;99.90;;;;;;5091128;28;20652;-61
2022/01/17 01:03:38;;;;;;;71.03;29.63;;;7.00;99.90;;;;;;5055053;28;20297;-61
2022/01/17 01:06:04;;;;;;;71.83;28.17;;;7.00;99.90;;;;;;5088467;28;20547;-60
2022/01/17 01:08:30;;;;;;;63.37;28.30;;;7.10;99.90;;;;;;5080254;28;20262;-61
2022/01/17 01:10:56;;;;;;;69.73;29.40;;;7.00;99.90;;;;;;5084401;28;20201;-60
2022/01/17 01:13:23;;;;;;;72.53;27.93;;;7.10;99.90;;;;;;5091133;28;20702;-60
2022/01/17 01:28:57;;;;;;;70.20;29.03;;;6.90;99.90;;;;;;5057029;28;20232;-61
2022/01/17 01:31:37;;;;;;;66.63;27.10;;;6.80;99.90;;;;;;5081558;28;20560;-61
2022/01/17 01:34:05;;;;;;;63.17;25.97;;;6.80;99.90;;;;;;5082067;28;20737;-61
2022/01/17 01:36:33;;;;;;;61.80;26.93;;;6.80;99.90;;;;;;5072934;28;20204;-61
2022/01/17 01:38:58;;;;;;;68.43;29.37;;;6.70;99.90;;;;;;5073446;28;20272;-61
2022/01/17 01:41:24;;;;;;;68.43;28.90;;;6.90;99.90;;;;;;5091360;28;20284;-61
2022/01/17 01:43:50;;;;;;;65.93;27.73;;;6.90;99.90;;;;;;5073562;28;20189;-61
2022/01/17 01:46:19;;;;;;;62.10;27.13;;;6.90;99.90;;;;;;5063969;28;20207;-61
2022/01/17 01:48:44;;;;;;;63.73;28.60;;;6.80;99.90;;;;;;5059829;28;20209;-61
2022/01/17 01:51:10;;;;;;;65.83;25.80;;;6.90;99.90;;;;;;5041706;28;20192;-61
2022/01/17 01:53:37;;;;;;;58.37;28.20;;;7.00;99.90;;;;;;5095034;28;20658;-61
2022/01/17 01:56:04;;;;;;;61.50;25.97;;;7.00;99.90;;;;;;5095480;28;20664;-61
2022/01/17 01:58:30;;;;;;;67.60;27.70;;;6.90;99.90;;;;;;5077249;28;20187;-61
2022/01/17 02:00:56;;;;;;;58.20;25.87;;;7.00;99.90;;;;;;5082029;28;20188;-61
2022/01/17 02:03:22;;;;;;;61.50;29.67;;;7.10;99.90;;;;;;5094511;28;20176;-61
2022/01/17 02:05:48;;;;;;;66.40;27.17;;;7.00;99.90;;;;;;5095183;28;20620;-61
2022/01/17 02:08:15;;;;;;;59.97;27.73;;;6.90;99.90;;;;;;5066564;28;20678;-61
2022/01/17 02:10:42;;;;;;;54.80;26.17;;;7.10;99.90;;;;;;5070525;28;20678;-61
2022/01/17 02:13:08;;;;;;;60.60;27.70;;;7.30;99.90;;;;;;5083571;28;20235;-61
2022/01/17 02:15:34;;;;;;;59.37;27.03;;;7.20;99.90;;;;;;5057871;28;20231;-61
2022/01/17 02:18:00;;;;;;;60.43;27.47;;;7.10;99.90;;;;;;5089003;28;20553;-61
2022/01/17 02:20:58;;;;;;;66.07;27.70;;;7.00;99.90;;;;;;5073655;28;20193;-61
2022/01/17 02:23:21;;;;;;;60.37;27.53;;;7.00;99.90;;;;;;5083341;28;20245;-62
2022/01/17 02:25:46;;;;;;;68.23;28.33;;;6.90;99.90;;;;;;5066298;28;20192;-61
2022/01/17 02:28:12;;;;;;;64.43;25.47;;;6.70;99.90;;;;;;5077805;28;20217;-61
2022/01/17 02:30:37;;;;;;;66.67;29.07;;;6.80;99.90;;;;;;5085689;28;20197;-61
2022/01/17 02:33:03;;;;;;;62.33;27.53;;;6.90;99.90;;;;;;5064060;28;20239;-61
2022/01/17 02:35:29;;;;;;;62.17;27.57;;;6.90;99.90;;;;;;5089802;28;20192;-61
2022/01/17 02:37:56;;;;;;;63.03;28.70;;;6.90;99.90;;;;;;5081585;28;20190;-68
2022/01/17 02:40:23;;;;;;;60.53;26.90;;;6.90;99.90;;;;;;5075933;28;20177;-61
2022/01/17 02:43:00;;;;;;;61.97;28.43;;;7.10;99.90;;;;;;5094595;28;20641;-61
2022/01/17 02:45:35;;;;;;;62.57;27.07;;;7.10;99.90;;;;;;5094492;28;20184;-61
2022/01/17 02:48:04;;;;;;;63.23;27.40;;;7.10;99.90;;;;;;5077740;28;20192;-61
2022/01/17 02:50:29;;;;;;;56.83;26.63;;;7.00;99.90;;;;;;5089819;28;20264;-61
2022/01/17 02:53:00;;;;;;;56.73;27.43;;;7.00;99.90;;;;;;5075112;28;20277;-61
2022/01/17 02:55:26;;;;;;;63.03;28.57;;;7.00;99.90;;;;;;5079715;28;20189;-63
2022/01/17 02:57:51;;;;;;;60.63;28.90;;;7.10;99.90;;;;;;5075923;28;20181;-61
2022/01/17 03:00:17;;;;;;;60.10;27.73;;;7.20;99.90;;;;;;5080103;28;20181;-61
2022/01/17 03:02:48;;;;;;;63.57;28.17;;;7.20;99.90;;;;;;5085541;28;20200;-61
2022/01/17 03:05:15;;;;;;;61.83;27.67;;;7.00;99.90;;;;;;5065671;28;20193;-61
2022/01/17 03:07:41;;;;;;;62.37;27.13;;;7.00;99.90;;;;;;5076261;28;20174;-61
2022/01/17 03:10:14;;;;;;;55.17;27.37;;;7.10;99.90;;;;;;5095342;28;20634;-61
2022/01/17 03:12:40;;;;;;;67.00;29.03;;;7.20;99.90;;;;;;5092179;28;20246;-61
2022/01/17 03:15:06;;;;;;;71.93;28.37;;;7.20;99.90;;;;;;5093019;28;20212;-61
2022/01/17 03:17:32;;;;;;;59.93;26.33;;;7.20;99.90;;;;;;5075744;28;20237;-61
2022/01/17 03:19:57;;;;;;;57.70;29.50;;;7.30;99.90;;;;;;5092842;28;20188;-63
2022/01/17 03:22:23;;;;;;;60.17;27.67;;;7.30;99.90;;;;;;5093559;28;20181;-62
2022/01/17 03:24:49;;;;;;;63.97;29.30;;;7.30;99.90;;;;;;5070293;28;20196;-61
2022/01/17 03:27:15;;;;;;;52.47;26.30;;;7.40;99.90;;;;;;5089658;28;20195;-61
2022/01/17 03:29:40;;;;;;;54.60;26.77;;;7.20;99.90;;;;;;5086373;28;20213;-61
2022/01/17 03:32:06;;;;;;;53.93;27.60;;;7.20;99.90;;;;;;5075123;28;20523;-61
2022/01/17 03:34:32;;;;;;;58.33;27.83;;;7.30;99.90;;;;;;5056767;28;20282;-61
2022/01/17 03:36:58;;;;;;;66.17;29.20;;;7.30;99.90;;;;;;5081354;28;20596;-60
2022/01/17 03:39:23;;;;;;;65.67;27.13;;;7.30;99.90;;;;;;5093495;28;20241;-61
2022/01/17 03:41:49;;;;;;;62.40;29.17;;;7.20;99.90;;;;;;5064727;28;20213;-60
2022/01/17 03:44:15;;;;;;;60.03;29.63;;;7.20;99.90;;;;;;5066135;28;20662;-61
2022/01/17 03:46:41;;;;;;;59.63;26.40;;;7.10;99.90;;;;;;5069082;28;20185;-60
2022/01/17 03:49:07;;;;;;;61.73;27.43;;;7.10;99.90;;;;;;5093673;28;20205;-64
2022/01/17 03:51:32;;;;;;;61.10;28.33;;;7.20;99.90;;;;;;5059143;28;20185;-60
2022/01/17 03:53:58;;;;;;;58.30;27.80;;;7.20;99.90;;;;;;5081671;28;20258;-60
2022/01/17 03:56:24;;;;;;;62.00;28.70;;;7.20;99.90;;;;;;5093059;28;20699;-64
2022/01/17 03:58:49;;;;;;;62.70;27.20;;;7.40;99.90;;;;;;5068236;28;20189;-60
2022/01/17 04:01:15;;;;;;;57.73;25.50;;;7.50;99.90;;;;;;5066891;28;20267;-60
2022/01/17 04:03:41;;;;;;;60.33;28.70;;;7.40;99.90;;;;;;5090501;28;20242;-62
2022/01/17 04:06:07;;;;;;;61.77;27.53;;;7.20;99.90;;;;;;5065040;28;20217;-60
2022/01/17 04:08:34;;;;;;;55.27;27.93;;;7.20;99.90;;;;;;5080612;28;20707;-60
2022/01/17 04:10:59;;;;;;;56.07;25.57;;;7.30;99.90;;;;;;5061616;28;20247;-60
2022/01/17 04:13:25;;;;;;;50.80;25.13;;;7.30;99.90;;;;;;5054734;28;20668;-60
2022/01/17 04:15:51;;;;;;;55.57;26.90;;;7.20;99.90;;;;;;5078625;28;20526;-61
2022/01/17 04:18:23;;;;;;;55.23;25.23;;;7.20;99.90;;;;;;5047034;28;20192;-60
2022/01/17 04:20:48;;;;;;;55.53;23.00;;;7.20;99.90;;;;;;5086370;28;20192;-60
2022/01/17 04:23:14;;;;;;;53.90;24.80;;;7.10;99.90;;;;;;5079908;28;20185;-60
2022/01/17 04:25:42;;;;;;;48.73;24.63;;;7.00;99.90;;;;;;5073154;28;20560;-60
2022/01/17 04:28:09;;;;;;;58.17;26.33;;;7.00;99.90;;;;;;5091215;28;20266;-60
2022/01/17 04:30:36;;;;;;;55.23;25.60;;;7.00;99.90;;;;;;5074040;28;20184;-63
2022/01/17 04:33:03;;;;;;;63.10;27.53;;;7.10;99.90;;;;;;5083190;28;20211;-62
2022/01/17 04:35:29;;;;;;;58.53;26.13;;;7.00;99.90;;;;;;5058149;28;20203;-61
2022/01/17 04:38:00;;;;;;;55.20;26.20;;;7.00;99.90;;;;;;5073197;28;20188;-61
2022/01/17 04:40:33;;;;;;;55.23;24.20;;;7.00;99.90;;;;;;5072927;28;20580;-61
2022/01/17 04:42:58;;;;;;;46.10;24.90;;;6.90;99.90;;;;;;5064203;28;20196;-61
2022/01/17 04:45:24;;;;;;;52.50;26.13;;;6.90;99.90;;;;;;5075646;28;20572;-63
2022/01/17 04:47:51;;;;;;;63.90;27.57;;;6.90;99.90;;;;;;5090972;28;20575;-62
2022/01/17 04:50:23;;;;;;;57.93;26.60;;;7.00;99.90;;;;;;5092089;28;20276;-61
2022/01/17 04:52:50;;;;;;;54.97;25.40;;;6.90;99.90;;;;;;5091449;28;20199;-62
2022/01/17 04:55:18;;;;;;;62.37;26.83;;;7.00;99.90;;;;;;5083537;28;20183;-61
2022/01/17 04:57:45;;;;;;;59.50;26.00;;;6.80;99.90;;;;;;5066600;28;20190;-61
2022/01/17 05:00:13;;;;;;;54.90;25.20;;;6.80;99.90;;;;;;5075456;28;20184;-61
2022/01/17 05:02:39;;;;;;;55.80;25.53;;;6.80;99.90;;;;;;5073897;28;20193;-61
2022/01/17 05:05:06;;;;;;;65.03;27.47;;;6.80;99.90;;;;;;5057639;28;20281;-61
2022/01/17 05:07:35;;;;;;;59.30;27.03;;;6.80;99.90;;;;;;5085637;28;20190;-61
2022/01/17 05:10:02;;;;;;;58.80;28.87;;;6.90;99.90;;;;;;5067431;28;20649;-61
2022/01/17 05:12:29;;;;;;;50.90;26.13;;;6.80;99.90;;;;;;5077450;28;20508;-61
2022/01/17 05:14:55;;;;;;;61.37;28.97;;;6.80;99.90;;;;;;5087163;28;20184;-69
2022/01/17 05:19:49;;;;;;;60.90;27.70;;;6.80;99.90;;;;;;5064255;28;20645;-61
2022/01/17 05:22:16;;;;;;;60.77;27.70;;;6.80;99.90;;;;;;5091474;28;20280;-61
2022/01/17 05:24:42;;;;;;;52.23;25.67;;;6.70;99.90;;;;;;5090895;28;20188;-61
2022/01/17 05:27:08;;;;;;;63.63;27.43;;;6.60;99.90;;;;;;5061436;28;20192;-62
2022/01/17 05:29:35;;;;;;;58.20;25.73;;;6.50;99.90;;;;;;5072026;28;20398;-68
2022/01/17 05:32:01;;;;;;;60.97;26.73;;;6.50;99.90;;;;;;5080810;28;20563;-61
2022/01/17 05:34:26;;;;;;;59.83;26.67;;;6.50;99.90;;;;;;5072806;28;20280;-65
2022/01/17 05:36:52;;;;;;;60.77;25.27;;;6.60;99.90;;;;;;5072535;28;20186;-62
2022/01/17 05:39:18;;;;;;;55.00;25.10;;;6.70;99.90;;;;;;5071385;28;20192;-62
2022/01/17 05:41:43;;;;;;;62.27;27.00;;;6.80;99.90;;;;;;5083309;28;20280;-62
2022/01/17 05:44:09;;;;;;;63.10;26.70;;;6.70;99.90;;;;;;5064424;28;20213;-61
2022/01/17 05:46:35;;;;;;;58.20;26.50;;;6.90;99.90;;;;;;5053080;28;20584;-63
2022/01/17 05:49:00;;;;;;;57.17;28.87;;;7.00;99.90;;;;;;5071911;28;20217;-61
2022/01/17 05:51:26;;;;;;;65.57;27.43;;;7.10;99.90;;;;;;5072115;28;20246;-61
2022/01/17 05:53:52;;;;;;;66.50;28.03;;;7.10;99.90;;;;;;5075403;28;20188;-62
2022/01/17 05:56:17;;;;;;;60.53;27.80;;;7.10;99.90;;;;;;5073549;28;20177;-62
2022/01/17 05:58:43;;;;;;;71.07;29.57;;;7.10;99.90;;;;;;5070583;28;20258;-62
2022/01/17 06:01:10;;;;;;;69.07;28.10;;;7.10;99.90;;;;;;5067424;28;20264;-62
2022/01/17 06:03:36;;;;;;;69.27;27.90;;;7.10;99.90;;;;;;5054228;28;20208;-62
2022/01/17 06:06:03;;;;;;;58.47;29.93;;;7.30;99.90;;;;;;5076176;28;20185;-62
2022/01/17 06:08:29;;;;;;;75.43;31.17;;;7.40;99.90;;;;;;5090787;28;20288;-61
2022/01/17 06:10:55;;;;;;;72.03;32.00;;;7.30;99.90;;;;;;5073996;28;20201;-61
2022/01/17 06:13:21;;;;;;;83.33;30.67;;;7.40;99.90;;;;;;5092625;28;20172;-61
2022/01/17 06:15:47;;;;;;;74.40;36.23;;;7.30;99.90;;;;;;5089288;28;20542;-62
2022/01/17 06:18:13;;;;;;;76.47;30.93;;;7.40;99.90;;;;;;5062510;28;20577;-62
2022/01/17 06:20:39;;;;;;;78.43;30.73;;;7.50;99.90;;;;;;5091596;28;20258;-62
2022/01/17 06:23:05;;;;;;;73.00;29.87;;;7.40;99.90;;;;;;5077181;28;20185;-63
2022/01/17 06:25:31;;;;;;;72.57;31.43;;;7.40;99.90;;;;;;5064202;28;20205;-62
2022/01/17 06:27:56;;;;;;;75.50;31.00;;;7.50;99.90;;;;;;5090560;28;20249;-62
2022/01/17 06:30:23;;;;;;;76.23;31.93;;;7.50;99.90;;;;;;5080120;28;20744;-62
2022/01/17 06:32:48;;;;;;;78.63;31.77;;;7.70;99.90;;;;;;5063848;28;20189;-65
2022/01/17 06:35:14;;;;;;;76.00;33.70;;;7.70;99.90;;;;;;5053328;28;20184;-71
2022/01/17 06:37:40;;;;;;;69.00;31.07;;;7.60;99.90;;;;;;5074793;28;20268;-65
2022/01/17 06:40:07;;;;;;;78.23;32.70;;;7.60;99.90;;;;;;5083434;28;20215;-65
2022/01/17 06:42:34;;;;;;;75.07;32.43;;;7.70;99.90;;;;;;5093333;28;20196;-64
2022/01/17 06:45:04;;;;;;;74.00;31.73;;;7.70;99.90;;;;;;5095095;28;20193;-66
2022/01/17 06:47:30;;;;;;;79.10;32.07;;;7.60;99.90;;;;;;5082455;28;20182;-66
2022/01/17 06:49:56;;;;;;;76.23;33.33;;;7.60;99.90;;;;;;5073737;28;20311;-65
2022/01/17 06:52:23;;;;;;;67.80;30.90;;;7.60;99.90;;;;;;5094633;28;20318;-66
2022/01/17 06:54:50;;;;;;;74.57;32.30;;;7.60;99.90;;;;;;5095337;28;20184;-64
2022/01/17 06:57:16;;;;;;;81.97;31.20;;;7.70;99.90;;;;;;5064776;28;20189;-66
2022/01/17 06:59:42;;;;;;;76.73;33.70;;;7.70;99.90;;;;;;5078936;28;20223;-66
2022/01/17 07:02:08;;;;;;;74.33;32.70;;;7.70;99.90;;;;;;5071190;28;20227;-69
2022/01/17 07:04:34;;;;;;;84.70;33.87;;;7.70;99.90;;;;;;5085761;28;20242;-64
2022/01/17 07:07:00;;;;;;;75.33;35.07;;;7.80;99.90;;;;;;5085872;28;20189;-63
2022/01/17 07:09:28;;;;;;;70.80;33.00;;;7.90;99.90;;;;;;5081871;28;20576;-63
2022/01/17 07:11:58;;;;;;;76.93;32.60;;;7.90;99.90;;;;;;5087057;28;20204;-63
2022/01/17 07:14:25;;;;;;;70.07;31.00;;;7.80;99.90;;;;;;5073281;28;20169;-64
2022/01/17 07:16:51;;;;;;;79.30;35.90;;;7.70;99.90;;;;;;5081983;28;20207;-64
2022/01/17 07:19:17;;;;;;;80.57;36.07;;;7.60;99.90;;;;;;5064418;28;20184;-63
2022/01/17 07:21:43;;;;;;;84.70;36.13;;;7.60;99.90;;;;;;5094263;28;20207;-65
2022/01/17 07:24:08;;;;;;;75.77;34.73;;;7.60;99.90;;;;;;5076036;28;20180;-66
2022/01/17 07:26:34;;;;;;;78.27;33.10;;;7.40;99.90;;;;;;5094185;28;20672;-67
2022/01/17 07:29:00;;;;;;;79.93;34.57;;;7.50;99.90;;;;;;5043496;28;20212;-66
2022/01/17 07:31:27;;;;;;;82.33;35.47;;;7.70;99.90;;;;;;5082926;28;20209;-66
2022/01/17 07:33:52;;;;;;;76.67;34.97;;;7.70;99.90;;;;;;5059618;28;20583;-65
2022/01/17 07:36:20;;;;;;;82.27;36.83;;;7.70;99.90;;;;;;5095562;28;20653;-65
2022/01/17 07:38:47;;;;;;;73.77;34.87;;;7.70;99.90;;;;;;5075437;28;20291;-65
2022/01/17 07:41:13;;;;;;;69.27;33.83;;;7.70;99.90;;;;;;5090374;28;20181;-66
2022/01/17 07:43:39;;;;;;;71.57;34.13;;;7.80;99.90;;;;;;5089255;28;20251;-66
2022/01/17 07:46:18;;;;;;;71.97;33.47;;;7.70;99.90;;;;;;5076092;28;20199;-65
2022/01/17 07:51:28;;;;;;;73.47;32.40;;;7.80;99.90;;;;;;5093581;28;20215;-65
2022/01/17 07:53:56;;;;;;;69.77;31.70;;;7.80;99.90;;;;;;5058324;28;20193;-65
2022/01/17 07:56:23;;;;;;;61.97;31.30;;;7.80;99.90;;;;;;5092467;28;20594;-72
2022/01/17 07:58:49;;;;;;;64.47;29.77;;;7.80;99.90;;;;;;5075139;28;20271;-66
2022/01/17 08:01:15;;;;;;;72.57;32.93;;;7.90;99.90;;;;;;5074021;28;20551;-65
2022/01/17 08:03:41;;;;;;;74.63;30.60;;;7.90;99.90;;;;;;5093824;28;20180;-66
2022/01/17 08:06:08;;;;;;;59.07;27.80;;;7.80;99.90;;;;;;5090162;28;20283;-65
2022/01/17 08:08:33;;;;;;;65.07;27.83;;;7.80;99.90;;;;;;5074439;28;20235;-65
2022/01/17 08:10:59;;;;;;;56.60;27.50;;;7.70;99.90;;;;;;5088724;28;20551;-66
2022/01/17 08:13:25;;;;;;;52.23;26.17;;;7.70;99.90;;;;;;5080597;28;20189;-66
2022/01/17 08:15:51;;;;;;;55.70;24.17;;;7.90;99.90;;;;;;5085200;28;20633;-66
2022/01/17 08:18:17;;;;;;;50.83;24.23;;;8.00;99.90;;;;;;5093914;28;20183;-66
2022/01/17 08:20:43;;;;;;;51.40;23.37;;;8.00;99.90;;;;;;5074975;28;20192;-65
2022/01/17 08:23:10;;;;;;;57.50;24.50;;;7.90;99.90;;;;;;5095007;28;20185;-65
2022/01/17 08:25:36;;;;;;;49.00;23.00;;;7.90;99.90;;;;;;5074681;28;20193;-65
2022/01/17 08:28:03;;;;;;;50.33;24.43;;;8.00;99.90;;;;;;5074934;28;20180;-65
2022/01/17 08:30:29;;;;;;;48.73;24.40;;;8.00;99.90;;;;;;5074639;28;20197;-65
2022/01/17 08:32:55;;;;;;;45.13;22.87;;;8.00;99.90;;;;;;5043399;28;20288;-66
2022/01/17 08:35:22;;;;;;;41.27;21.63;;;8.10;99.90;;;;;;5088289;28;20263;-66
2022/01/17 08:37:48;;;;;;;53.47;21.20;;;8.10;99.90;;;;;;5073812;28;20249;-66
2022/01/17 08:40:15;;;;;;;41.47;21.17;;;8.20;99.90;;;;;;5092783;28;20188;-66
2022/01/17 08:42:41;;;;;;;41.53;19.00;;;8.30;99.90;;;;;;5040985;28;20250;-66
2022/01/17 08:45:10;;;;;;;37.97;19.70;;;8.20;99.90;;;;;;5075449;28;20189;-71
2022/01/17 08:47:36;;;;;;;33.43;17.13;;;8.20;99.90;;;;;;5079917;28;20207;-66
2022/01/17 08:50:04;;;;;;;40.90;18.47;;;8.10;99.90;;;;;;5055771;28;20237;-65
2022/01/17 08:52:29;;;;;;;25.93;14.10;;;8.20;99.90;;;;;;5088967;28;20181;-68
2022/01/17 08:54:55;;;;;;;33.77;15.00;;;8.20;99.90;;;;;;5090566;28;20222;-66
2022/01/17 08:57:21;;;;;;;38.47;17.07;;;8.20;99.90;;;;;;5092196;28;20616;-65
2022/01/17 08:59:46;;;;;;;38.20;15.00;;;8.30;99.90;;;;;;5074488;28;20196;-65
2022/01/17 09:02:13;;;;;;;31.37;14.13;;;8.30;99.90;;;;;;5092313;28;20276;-65
2022/01/17 09:04:41;;;;;;;27.07;15.23;;;8.30;99.90;;;;;;5055144;28;20185;-65
2022/01/17 09:07:15;;;;;;;36.17;13.37;;;8.30;99.90;;;;;;5090273;28;20196;-66
2022/01/17 09:09:42;;;;;;;27.37;14.10;;;8.10;99.90;;;;;;5092269;28;20224;-65
2022/01/17 09:12:10;;;;;;;29.10;13.00;;;8.00;99.90;;;;;;5092512;28;20196;-68
2022/01/17 09:14:37;;;;;;;25.97;13.67;;;8.00;99.90;;;;;;5056479;28;20223;-66
2022/01/17 09:17:06;;;;;;;28.43;13.83;;;7.90;99.90;;;;;;5055223;28;20196;-65
2022/01/17 09:19:32;;;;;;;33.87;14.67;;;8.00;99.90;;;;;;5058842;28;20231;-65
2022/01/17 09:21:58;;;;;;;27.87;14.37;;;8.00;99.90;;;;;;5092129;28;20188;-65
2022/01/17 09:24:24;;;;;;;27.73;13.47;;;8.10;99.90;;;;;;5073563;28;20641;-66
2022/01/17 09:26:50;;;;;;;27.13;13.87;;;8.10;99.90;;;;;;5089772;28;20193;-65
2022/01/17 09:29:16;;;;;;;31.07;15.13;;;8.20;99.90;;;;;;5055330;28;20222;-66
2022/01/17 09:31:42;;;;;;;29.37;13.27;;;8.30;99.90;;;;;;5073341;28;20239;-66
2022/01/17 09:34:07;;;;;;;31.77;14.33;;;8.10;99.90;;;;;;5090072;28;20524;-69
2022/01/17 09:36:34;;;;;;;37.67;15.40;;;8.20;99.90;;;;;;5056532;28;20638;-66
2022/01/17 09:39:05;;;;;;;28.07;13.50;;;8.40;99.90;;;;;;5074330;28;20227;-66
2022/01/17 09:41:31;;;;;;;28.93;13.43;;;8.40;99.90;;;;;;5092564;28;20241;-66
2022/01/17 09:43:58;;;;;;;32.40;14.47;;;8.50;99.90;;;;;;5092298;28;20203;-66
2022/01/17 09:46:26;;;;;;;39.70;15.50;;;8.60;99.90;;;;;;5074004;28;20242;-72
2022/01/17 09:49:00;;;;;;;26.13;13.07;;;8.60;99.90;;;;;;5071279;28;20742;-66
2022/01/17 09:54:05;;;;;;;22.83;12.30;;;8.60;99.90;;;;;;5076820;28;20654;-66
2022/01/17 09:56:31;;;;;;;31.20;12.37;;;8.70;99.90;;;;;;5073895;28;20699;-69
2022/01/17 09:58:58;;;;;;;27.90;11.13;;;8.80;99.90;;;;;;5054828;28;20589;-65
2022/01/17 10:01:24;;;;;;;20.87;11.50;;;8.80;99.90;;;;;;5080997;28;20181;-65
2022/01/17 10:03:52;;;;;;;23.80;9.97;;;8.90;99.90;;;;;;5071801;28;20318;-67
2022/01/17 10:06:19;;;;;;;29.70;11.80;;;8.90;99.90;;;;;;5078148;28;20216;-66
2022/01/17 10:08:44;;;;;;;20.37;10.93;;;8.80;99.90;;;;;;5066582;28;20299;-66
2022/01/17 10:11:16;;;;;;;30.10;11.20;;;8.90;99.90;;;;;;5091654;28;20393;-66
2022/01/17 10:13:45;;;;;;;26.23;12.17;;;8.90;99.90;;;;;;5093916;28;20208;-65
2022/01/17 10:16:14;;;;;;;28.60;13.47;;;9.10;99.90;;;;;;5076981;28;20187;-66
2022/01/17 10:19:03;;;;;;;21.97;9.43;;;9.10;99.90;;;;;;5076962;28;20339;-66
2022/01/17 10:21:35;;;;;;;17.90;9.23;;;8.90;99.90;;;;;;5088187;28;20181;-68
2022/01/17 10:24:27;;;;;;;26.47;9.63;;;8.70;99.90;;;;;;5086971;28;20192;-67
2022/01/17 10:30:13;;;;;;;33.43;11.33;;;8.90;99.90;;;;;;5094748;28;20279;-66
2022/01/17 10:35:28;;;;;;;20.80;9.03;;;9.10;99.90;;;;;;5095663;28;20231;-68
2022/01/17 10:38:19;;;;;;;20.70;10.37;;;9.10;99.90;;;;;;5094411;28;20187;-66
2022/01/17 10:41:05;;;;;;;22.20;9.60;;;9.20;99.90;;;;;;5077880;28;20203;-66
2022/01/17 10:43:38;;;;;;;17.83;9.00;;;9.30;99.90;;;;;;5093381;28;20271;-66
2022/01/17 10:46:10;;;;;;;17.97;9.57;;;9.40;99.90;;;;;;5076817;28;20552;-71
2022/01/17 10:48:40;;;;;;;16.17;9.37;;;9.50;99.90;;;;;;5076075;28;20200;-66
2022/01/17 10:51:06;;;;;;;16.27;9.83;;;9.60;99.90;;;;;;5095301;28;20649;-65
2022/01/17 10:53:32;;;;;;;18.80;9.00;;;9.50;99.90;;;;;;5090535;28;20213;-66
2022/01/17 10:56:06;;;;;;;23.27;10.37;;;9.60;99.90;;;;;;5060617;28;20223;-69
2022/01/17 10:58:33;;;;;;;20.00;9.10;;;9.40;99.90;;;;;;5095458;28;20646;-66
2022/01/17 11:01:01;;;;;;;14.03;7.03;;;9.20;99.90;;;;;;5093965;28;20460;-66
2022/01/17 11:03:30;;;;;;;16.63;8.10;;;9.00;99.90;;;;;;5077646;28;20185;-69
2022/01/17 11:06:00;;;;;;;16.77;8.20;;;9.00;99.90;;;;;;5094411;28;20269;-66
2022/01/17 11:08:29;;;;;;;17.13;8.13;;;9.30;99.90;;;;;;5090625;28;20211;-66
2022/01/17 11:10:58;;;;;;;21.30;9.97;;;9.50;99.90;;;;;;5062994;28;20196;-66
2022/01/17 11:13:28;;;;;;;21.07;7.87;;;9.70;99.90;;;;;;5060937;28;20235;-65
2022/01/17 11:16:11;;;;;;;18.53;8.43;;;9.80;99.90;;;;;;5071548;28;20695;-66
2022/01/17 11:18:40;;;;;;;17.63;6.97;;;10.00;99.90;;;;;;5093950;28;20177;-66
2022/01/17 11:21:13;;;;;;;14.23;7.20;;;10.00;99.90;;;;;;5094982;28;20180;-66
2022/01/17 11:23:43;;;;;;;16.83;8.73;;;10.00;99.90;;;;;;5092128;28;20239;-67
2022/01/17 11:26:10;;;;;;;20.17;7.90;;;9.90;99.90;;;;;;5094538;28;20191;-66
2022/01/17 11:28:37;;;;;;;20.03;8.13;;;9.90;99.90;;;;;;5094011;28;20752;-67
2022/01/17 11:31:07;;;;;;;23.03;8.03;;;9.90;99.90;;;;;;5064533;28;20193;-66
2022/01/17 11:33:33;;;;;;;21.10;9.30;;;10.00;99.90;;;;;;5080827;28;20272;-66
2022/01/17 11:35:59;;;;;;;19.53;7.60;;;10.10;99.90;;;;;;5059939;28;20585;-66
2022/01/17 11:38:28;;;;;;;15.53;7.53;;;10.10;99.90;;;;;;5060503;28;20227;-66
2022/01/17 11:40:55;;;;;;;20.80;9.03;;;10.00;99.90;;;;;;5093788;28;20199;-70
2022/01/17 11:43:33;;;;;;;21.63;8.20;;;10.10;99.90;;;;;;5076327;28;20537;-66
2022/01/17 11:46:00;;;;;;;18.17;9.13;;;10.00;99.90;;;;;;5093793;28;20188;-70
2022/01/17 11:48:30;;;;;;;18.13;9.37;;;9.90;99.90;;;;;;5059119;28;20226;-67
2022/01/17 11:51:11;;;;;;;15.77;9.50;;;10.00;99.90;;;;;;5076083;28;20221;-66
2022/01/17 11:53:40;;;;;;;18.03;8.73;;;10.00;99.90;;;;;;5083186;28;20181;-67
2022/01/17 11:56:06;;;;;;;15.73;9.30;;;10.00;99.90;;;;;;5076137;28;20172;-68
2022/01/17 11:58:42;;;;;;;21.97;9.07;;;10.10;99.90;;;;;;5093875;28;20229;-67
2022/01/17 12:01:13;;;;;;;17.77;8.13;;;10.00;99.90;;;;;;5087328;28;20719;-67
2022/01/17 12:03:43;;;;;;;19.43;8.90;;;10.00;99.90;;;;;;5079090;28;20215;-67
2022/01/17 12:06:27;;;;;;;18.50;9.73;;;10.10;99.90;;;;;;5076210;28;20629;-67
2022/01/17 12:09:20;;;;;;;12.40;9.17;;;10.10;99.90;;;;;;5093718;28;20231;-67
2022/01/17 12:11:48;;;;;;;19.63;9.47;;;10.00;99.90;;;;;;5078694;28;20205;-67
2022/01/17 12:14:21;;;;;;;21.87;9.10;;;10.00;99.90;;;;;;5056790;28;20637;-67
2022/01/17 12:16:47;;;;;;;19.00;9.23;;;9.80;99.90;;;;;;5074250;28;20573;-67
2022/01/17 12:19:13;;;;;;;17.87;10.23;;;9.80;99.90;;;;;;5074675;28;20547;-67
2022/01/17 12:21:57;;;;;;;21.13;9.93;;;10.00;99.90;;;;;;5069138;28;20219;-67
2022/01/17 12:24:31;;;;;;;30.67;10.97;;;10.00;99.90;;;;;;5093129;28;20518;-67
2022/01/17 12:27:01;;;;;;;19.47;9.07;;;10.00;99.90;;;;;;5059565;28;20195;-69
2022/01/17 12:29:57;;;;;;;13.50;8.30;;;10.00;99.90;;;;;;5093584;28;20204;-67
2022/01/17 12:32:26;;;;;;;13.97;8.63;;;10.10;99.90;;;;;;5091526;28;20196;-66
2022/01/17 12:34:58;;;;;;;21.33;8.70;;;10.10;99.90;;;;;;5093077;28;20187;-67
2022/01/17 12:37:33;;;;;;;20.87;9.47;;;10.10;99.90;;;;;;5082668;28;20190;-68
2022/01/17 12:40:11;;;;;;;15.90;8.37;;;10.10;99.90;;;;;;5089879;28;20553;-67
2022/01/17 12:43:12;;;;;;;23.00;9.53;;;10.10;99.90;;;;;;5075570;28;20181;-67
2022/01/17 12:45:37;;;;;;;19.90;8.33;;;10.20;99.90;;;;;;5088045;28;20181;-67
2022/01/17 12:48:07;;;;;;;12.30;7.87;;;10.10;99.90;;;;;;5088571;28;20291;-67
2022/01/17 12:50:34;;;;;;;27.67;10.13;;;10.00;99.90;;;;;;5093761;28;20191;-73
2022/01/17 12:53:02;;;;;;;17.97;9.10;;;9.70;99.90;;;;;;5073949;28;20276;-66
2022/01/17 12:55:37;;;;;;;21.27;10.33;;;9.80;99.90;;;;;;5073184;28;20181;-67
2022/01/17 12:58:28;;;;;;;19.47;8.67;;;9.70;99.90;;;;;;5092454;28;20179;-66
2022/01/17 13:01:06;;;;;;;23.73;10.00;;;9.70;99.90;;;;;;5081851;28;20267;-67
2022/01/17 13:03:34;;;;;;;19.20;10.50;;;9.80;99.90;;;;;;5083618;28;20191;-67
2022/01/17 13:06:02;;;;;;;18.33;9.17;;;10.10;99.90;;;;;;5092309;28;20181;-67
2022/01/17 13:08:28;;;;;;;22.30;9.87;;;10.20;99.90;;;;;;5092978;28;20215;-67
2022/01/17 13:10:55;;;;;;;25.23;9.63;;;10.40;99.90;;;;;;5092347;28;20201;-67